sensor_id;sensor_type;location;lat;lon;timestamp;pressure;altitude;pressure_sealevel;temperature;humidity
61292;BME280;47165;42.664;23.368;2023-07-31T00:00:44;94662.09;;;24.27;53.02
61292;BME280;47165;42.664;23.368;2023-07-31T00:03:11;94666.63;;;24.27;53.14
61292;BME280;47165;42.664;23.368;2023-07-31T00:05:37;94661.16;;;23.97;54.00
61292;BME280;47165;42.664;23.368;2023-07-31T00:08:02;94660.88;;;24.15;53.56
61292;BME280;47165;42.664;23.368;2023-07-31T00:10:28;94663.56;;;24.30;53.26
61292;BME280;47165;42.664;23.368;2023-07-31T00:12:53;94675.25;;;24.52;52.97
61292;BME280;47165;42.664;23.368;2023-07-31T00:15:19;94674.47;;;24.66;52.60
61292;BME280;47165;42.664;23.368;2023-07-31T00:17:45;94673.81;;;24.64;52.50
61292;BME280;47165;42.664;23.368;2023-07-31T00:20:13;94675.03;;;24.39;53.15
61292;BME280;47165;42.664;23.368;2023-07-31T00:22:40;94673.81;;;24.64;52.26
61292;BME280;47165;42.664;23.368;2023-07-31T00:25:06;94671.53;;;24.76;52.05
61292;BME280;47165;42.664;23.368;2023-07-31T00:27:32;94665.06;;;24.70;52.32
61292;BME280;47165;42.664;23.368;2023-07-31T00:29:58;94662.59;;;24.84;51.78
61292;BME280;47165;42.664;23.368;2023-07-31T00:32:23;94655.97;;;24.80;52.21
61292;BME280;47165;42.664;23.368;2023-07-31T00:34:49;94647.13;;;24.26;53.84
61292;BME280;47165;42.664;23.368;2023-07-31T00:37:15;94637.81;;;23.99;55.11
61292;BME280;47165;42.664;23.368;2023-07-31T00:39:41;94641.22;;;24.31;54.40
61292;BME280;47165;42.664;23.368;2023-07-31T00:42:07;94639.31;;;24.40;54.64
61292;BME280;47165;42.664;23.368;2023-07-31T00:44:33;94637.09;;;24.28;54.99
61292;BME280;47165;42.664;23.368;2023-07-31T00:46:59;94641.78;;;24.26;55.54
61292;BME280;47165;42.664;23.368;2023-07-31T00:49:26;94637.59;;;24.09;55.97
61292;BME280;47165;42.664;23.368;2023-07-31T00:51:52;94651.09;;;24.30;55.63
61292;BME280;47165;42.664;23.368;2023-07-31T00:54:18;94648.78;;;24.42;55.46
61292;BME280;47165;42.664;23.368;2023-07-31T00:56:45;94655.75;;;24.52;55.28
61292;BME280;47165;42.664;23.368;2023-07-31T00:59:11;94643.00;;;24.39;56.16
61292;BME280;47165;42.664;23.368;2023-07-31T01:01:37;94646.41;;;24.33;56.36
61292;BME280;47165;42.664;23.368;2023-07-31T01:04:03;94638.13;;;24.42;56.41
61292;BME280;47165;42.664;23.368;2023-07-31T01:09:39;94633.47;;;24.21;56.98
61292;BME280;47165;42.664;23.368;2023-07-31T01:12:07;94629.59;;;24.24;56.84
61292;BME280;47165;42.664;23.368;2023-07-31T01:14:32;94631.28;;;23.56;59.12
61292;BME280;47165;42.664;23.368;2023-07-31T01:16:58;94629.38;;;23.64;58.99
61292;BME280;47165;42.664;23.368;2023-07-31T01:19:25;94627.84;;;23.70;59.43
61292;BME280;47165;42.664;23.368;2023-07-31T01:27:34;94624.94;;;23.57;59.76
61292;BME280;47165;42.664;23.368;2023-07-31T01:30:11;94620.72;;;23.39;60.34
61292;BME280;47165;42.664;23.368;2023-07-31T01:32:43;94629.19;;;23.43;60.46
61292;BME280;47165;42.664;23.368;2023-07-31T01:35:09;94624.72;;;23.35;60.92
61292;BME280;47165;42.664;23.368;2023-07-31T01:37:35;94615.78;;;23.28;61.29
61292;BME280;47165;42.664;23.368;2023-07-31T01:40:01;94616.81;;;23.19;61.80
61292;BME280;47165;42.664;23.368;2023-07-31T01:42:26;94615.03;;;23.11;61.97
61292;BME280;47165;42.664;23.368;2023-07-31T01:44:52;94613.47;;;23.25;61.61
61292;BME280;47165;42.664;23.368;2023-07-31T01:47:17;94622.34;;;23.09;62.58
61292;BME280;47165;42.664;23.368;2023-07-31T01:49:43;94612.59;;;22.93;63.63
61292;BME280;47165;42.664;23.368;2023-07-31T01:52:08;94625.47;;;22.73;64.44
61292;BME280;47165;42.664;23.368;2023-07-31T01:54:34;94618.97;;;22.76;64.41
61292;BME280;47165;42.664;23.368;2023-07-31T01:56:59;94621.38;;;22.54;65.46
61292;BME280;47165;42.664;23.368;2023-07-31T01:59:25;94622.63;;;22.83;64.42
61292;BME280;47165;42.664;23.368;2023-07-31T02:01:50;94631.28;;;22.85;64.73
61292;BME280;47165;42.664;23.368;2023-07-31T02:04:16;94617.06;;;22.93;64.30
61292;BME280;47165;42.664;23.368;2023-07-31T02:06:43;94636.56;;;22.93;64.22
61292;BME280;47165;42.664;23.368;2023-07-31T02:09:09;94630.53;;;22.35;67.02
61292;BME280;47165;42.664;23.368;2023-07-31T02:11:35;94631.34;;;22.60;66.01
61292;BME280;47165;42.664;23.368;2023-07-31T02:14:00;94635.38;;;22.40;67.12
61292;BME280;47165;42.664;23.368;2023-07-31T02:16:26;94641.00;;;22.53;66.70
61292;BME280;47165;42.664;23.368;2023-07-31T02:18:51;94632.47;;;22.66;65.97
61292;BME280;47165;42.664;23.368;2023-07-31T02:21:16;94639.78;;;22.64;66.39
61292;BME280;47165;42.664;23.368;2023-07-31T02:23:42;94638.63;;;22.75;65.84
61292;BME280;47165;42.664;23.368;2023-07-31T02:26:07;94642.72;;;22.94;65.08
61292;BME280;47165;42.664;23.368;2023-07-31T02:28:33;94645.00;;;22.97;65.10
61292;BME280;47165;42.664;23.368;2023-07-31T02:30:58;94637.69;;;22.99;65.16
61292;BME280;47165;42.664;23.368;2023-07-31T02:33:30;94641.50;;;23.13;64.55
61292;BME280;47165;42.664;23.368;2023-07-31T02:35:55;94642.47;;;23.20;64.11
61292;BME280;47165;42.664;23.368;2023-07-31T02:38:21;94633.25;;;23.30;63.84
61292;BME280;47165;42.664;23.368;2023-07-31T02:40:47;94639.41;;;23.31;63.78
61292;BME280;47165;42.664;23.368;2023-07-31T02:43:13;94638.41;;;23.32;63.97
61292;BME280;47165;42.664;23.368;2023-07-31T02:45:39;94635.06;;;23.38;63.26
61292;BME280;47165;42.664;23.368;2023-07-31T02:48:04;94639.63;;;23.53;62.93
61292;BME280;47165;42.664;23.368;2023-07-31T02:50:30;94645.00;;;23.44;63.25
61292;BME280;47165;42.664;23.368;2023-07-31T02:52:57;94647.63;;;23.53;62.82
61292;BME280;47165;42.664;23.368;2023-07-31T02:55:22;94642.59;;;23.58;62.63
61292;BME280;47165;42.664;23.368;2023-07-31T02:57:48;94647.22;;;23.64;62.04
61292;BME280;47165;42.664;23.368;2023-07-31T03:00:13;94656.28;;;23.15;64.24
61292;BME280;47165;42.664;23.368;2023-07-31T03:02:40;94647.75;;;23.28;63.73
61292;BME280;47165;42.664;23.368;2023-07-31T03:05:06;94662.03;;;23.35;63.21
61292;BME280;47165;42.664;23.368;2023-07-31T03:07:32;94662.72;;;23.29;63.67
61292;BME280;47165;42.664;23.368;2023-07-31T03:09:58;94662.09;;;23.19;64.13
61292;BME280;47165;42.664;23.368;2023-07-31T03:12:23;94658.03;;;22.92;64.69
61292;BME280;47165;42.664;23.368;2023-07-31T03:14:49;94670.00;;;22.96;64.90
61292;BME280;47165;42.664;23.368;2023-07-31T03:17:15;94664.28;;;23.15;64.02
61292;BME280;47165;42.664;23.368;2023-07-31T03:19:40;94673.16;;;23.07;64.09
61292;BME280;47165;42.664;23.368;2023-07-31T03:22:06;94670.06;;;23.27;63.62
61292;BME280;47165;42.664;23.368;2023-07-31T03:24:31;94666.22;;;23.29;63.57
61292;BME280;47165;42.664;23.368;2023-07-31T03:26:57;94677.09;;;23.20;63.84
61292;BME280;47165;42.664;23.368;2023-07-31T03:29:22;94672.44;;;23.22;64.01
61292;BME280;47165;42.664;23.368;2023-07-31T03:31:48;94675.31;;;23.43;63.17
61292;BME280;47165;42.664;23.368;2023-07-31T03:34:13;94672.06;;;23.56;62.83
61292;BME280;47165;42.664;23.368;2023-07-31T03:36:39;94676.03;;;23.60;62.55
61292;BME280;47165;42.664;23.368;2023-07-31T03:39:05;94674.75;;;23.56;62.80
61292;BME280;47165;42.664;23.368;2023-07-31T03:41:30;94682.06;;;23.54;63.04
61292;BME280;47165;42.664;23.368;2023-07-31T03:43:56;94678.91;;;23.59;62.82
61292;BME280;47165;42.664;23.368;2023-07-31T03:46:22;94679.84;;;23.66;62.14
61292;BME280;47165;42.664;23.368;2023-07-31T03:48:48;94680.56;;;23.60;62.42
61292;BME280;47165;42.664;23.368;2023-07-31T03:51:14;94677.75;;;23.22;63.54
61292;BME280;47165;42.664;23.368;2023-07-31T03:53:40;94679.38;;;23.31;63.27
61292;BME280;47165;42.664;23.368;2023-07-31T03:56:06;94684.94;;;23.53;62.50
61292;BME280;47165;42.664;23.368;2023-07-31T03:58:31;94680.22;;;23.63;62.18
61292;BME280;47165;42.664;23.368;2023-07-31T04:00:57;94692.69;;;23.31;62.88
61292;BME280;47165;42.664;23.368;2023-07-31T04:03:24;94688.13;;;23.00;64.02
61292;BME280;47165;42.664;23.368;2023-07-31T04:05:49;94689.63;;;22.95;64.24
61292;BME280;47165;42.664;23.368;2023-07-31T04:08:15;94689.06;;;23.24;63.63
61292;BME280;47165;42.664;23.368;2023-07-31T04:10:40;94698.09;;;22.98;64.08
61292;BME280;47165;42.664;23.368;2023-07-31T04:13:06;94694.47;;;22.91;64.67
61292;BME280;47165;42.664;23.368;2023-07-31T04:15:31;94711.28;;;22.83;65.10
61292;BME280;47165;42.664;23.368;2023-07-31T04:17:57;94723.13;;;22.73;65.39
61292;BME280;47165;42.664;23.368;2023-07-31T04:20:24;94708.16;;;22.14;67.67
61292;BME280;47165;42.664;23.368;2023-07-31T04:22:49;94703.50;;;22.57;66.21
61292;BME280;47165;42.664;23.368;2023-07-31T04:25:15;94706.63;;;22.94;64.72
61292;BME280;47165;42.664;23.368;2023-07-31T04:27:40;94701.59;;;23.07;64.10
61292;BME280;47165;42.664;23.368;2023-07-31T04:30:06;94703.44;;;23.06;63.85
61292;BME280;47165;42.664;23.368;2023-07-31T04:32:32;94702.06;;;23.19;63.56
61292;BME280;47165;42.664;23.368;2023-07-31T04:34:58;94705.34;;;22.65;65.18
61292;BME280;47165;42.664;23.368;2023-07-31T04:37:23;94713.59;;;23.03;63.70
61292;BME280;47165;42.664;23.368;2023-07-31T04:39:48;94714.56;;;23.18;63.22
61292;BME280;47165;42.664;23.368;2023-07-31T04:42:15;94712.00;;;23.33;62.53
61292;BME280;47165;42.664;23.368;2023-07-31T04:44:46;94710.66;;;23.37;62.22
61292;BME280;47165;42.664;23.368;2023-07-31T04:47:12;94700.94;;;23.53;61.75
61292;BME280;47165;42.664;23.368;2023-07-31T04:49:37;94709.19;;;23.66;61.04
61292;BME280;47165;42.664;23.368;2023-07-31T04:52:03;94709.34;;;23.33;61.93
61292;BME280;47165;42.664;23.368;2023-07-31T04:54:29;94705.75;;;23.18;62.41
61292;BME280;47165;42.664;23.368;2023-07-31T04:56:54;94708.38;;;23.26;62.57
61292;BME280;47165;42.664;23.368;2023-07-31T04:59:21;94706.63;;;23.41;62.63
61292;BME280;47165;42.664;23.368;2023-07-31T05:01:47;94707.31;;;23.35;61.97
61292;BME280;47165;42.664;23.368;2023-07-31T05:04:13;94710.63;;;23.45;61.82
61292;BME280;47165;42.664;23.368;2023-07-31T05:06:42;94706.25;;;23.53;61.89
61292;BME280;47165;42.664;23.368;2023-07-31T05:09:07;94701.75;;;23.53;61.73
61292;BME280;47165;42.664;23.368;2023-07-31T05:11:34;94691.13;;;23.45;62.12
61292;BME280;47165;42.664;23.368;2023-07-31T05:14:00;94702.44;;;23.47;61.48
61292;BME280;47165;42.664;23.368;2023-07-31T05:16:25;94701.53;;;23.63;61.51
61292;BME280;47165;42.664;23.368;2023-07-31T05:18:51;94695.78;;;23.82;62.89
61292;BME280;47165;42.664;23.368;2023-07-31T05:21:16;94698.16;;;23.77;60.71
61292;BME280;47165;42.664;23.368;2023-07-31T05:23:42;94691.81;;;23.78;61.05
61292;BME280;47165;42.664;23.368;2023-07-31T05:26:09;94689.84;;;23.64;60.83
61292;BME280;47165;42.664;23.368;2023-07-31T05:28:35;94687.06;;;23.88;62.06
61292;BME280;47165;42.664;23.368;2023-07-31T05:31:02;94692.41;;;23.88;62.42
61292;BME280;47165;42.664;23.368;2023-07-31T05:33:28;94686.66;;;23.77;61.04
61292;BME280;47165;42.664;23.368;2023-07-31T05:35:53;94678.97;;;23.82;60.81
61292;BME280;47165;42.664;23.368;2023-07-31T05:38:19;94685.50;;;23.71;59.81
61292;BME280;47165;42.664;23.368;2023-07-31T05:40:44;94694.19;;;23.65;60.89
61292;BME280;47165;42.664;23.368;2023-07-31T05:43:10;94700.78;;;23.06;61.25
61292;BME280;47165;42.664;23.368;2023-07-31T05:45:35;94701.53;;;23.23;60.60
61292;BME280;47165;42.664;23.368;2023-07-31T05:48:02;94695.75;;;23.20;60.93
61292;BME280;47165;42.664;23.368;2023-07-31T05:50:27;94701.31;;;23.41;61.12
61292;BME280;47165;42.664;23.368;2023-07-31T05:52:53;94700.06;;;23.21;61.92
61292;BME280;47165;42.664;23.368;2023-07-31T05:55:18;94707.34;;;23.27;60.90
61292;BME280;47165;42.664;23.368;2023-07-31T05:57:44;94711.34;;;23.31;59.60
61292;BME280;47165;42.664;23.368;2023-07-31T06:00:12;94707.47;;;23.42;60.12
61292;BME280;47165;42.664;23.368;2023-07-31T06:02:37;94711.84;;;23.66;59.90
61292;BME280;47165;42.664;23.368;2023-07-31T06:05:04;94709.28;;;23.81;57.95
61292;BME280;47165;42.664;23.368;2023-07-31T06:07:31;94712.75;;;23.89;57.64
61292;BME280;47165;42.664;23.368;2023-07-31T06:09:57;94715.00;;;24.01;57.73
61292;BME280;47165;42.664;23.368;2023-07-31T06:12:30;94716.34;;;23.97;57.36
61292;BME280;47165;42.664;23.368;2023-07-31T06:14:56;94703.78;;;23.74;56.15
61292;BME280;47165;42.664;23.368;2023-07-31T06:17:22;94714.22;;;23.61;56.93
61292;BME280;47165;42.664;23.368;2023-07-31T06:19:49;94716.56;;;23.87;56.56
61292;BME280;47165;42.664;23.368;2023-07-31T06:22:14;94705.75;;;23.88;55.33
61292;BME280;47165;42.664;23.368;2023-07-31T06:24:40;94705.53;;;23.98;54.86
61292;BME280;47165;42.664;23.368;2023-07-31T06:27:07;94707.31;;;24.06;54.66
61292;BME280;47165;42.664;23.368;2023-07-31T06:29:32;94700.66;;;24.25;54.73
61292;BME280;47165;42.664;23.368;2023-07-31T06:31:58;94697.19;;;24.39;53.10
61292;BME280;47165;42.664;23.368;2023-07-31T06:34:24;94698.97;;;24.47;53.32
61292;BME280;47165;42.664;23.368;2023-07-31T06:36:50;94701.34;;;24.42;52.74
61292;BME280;47165;42.664;23.368;2023-07-31T06:39:15;94692.09;;;24.29;51.78
61292;BME280;47165;42.664;23.368;2023-07-31T06:41:42;94702.38;;;23.95;53.10
61292;BME280;47165;42.664;23.368;2023-07-31T06:44:08;94708.41;;;23.88;53.82
61292;BME280;47165;42.664;23.368;2023-07-31T06:46:33;94707.75;;;23.86;53.86
61292;BME280;47165;42.664;23.368;2023-07-31T06:48:59;94704.59;;;23.83;54.63
61292;BME280;47165;42.664;23.368;2023-07-31T06:51:24;94723.16;;;23.68;54.65
61292;BME280;47165;42.664;23.368;2023-07-31T06:53:50;94719.03;;;23.65;54.87
61292;BME280;47165;42.664;23.368;2023-07-31T06:56:15;94706.47;;;23.74;53.92
61292;BME280;47165;42.664;23.368;2023-07-31T06:58:41;94720.97;;;24.03;53.83
61292;BME280;47165;42.664;23.368;2023-07-31T07:01:07;94724.97;;;24.07;54.01
61292;BME280;47165;42.664;23.368;2023-07-31T07:03:32;94720.16;;;24.02;53.26
61292;BME280;47165;42.664;23.368;2023-07-31T07:05:58;94717.16;;;23.66;53.90
61292;BME280;47165;42.664;23.368;2023-07-31T07:08:24;94708.91;;;23.92;53.37
61292;BME280;47165;42.664;23.368;2023-07-31T07:10:50;94707.81;;;23.70;53.45
61292;BME280;47165;42.664;23.368;2023-07-31T07:13:15;94713.47;;;24.06;53.55
61292;BME280;47165;42.664;23.368;2023-07-31T07:15:43;94710.97;;;24.05;52.90
61292;BME280;47165;42.664;23.368;2023-07-31T07:18:12;94708.56;;;24.18;53.00
61292;BME280;47165;42.664;23.368;2023-07-31T07:20:39;94710.63;;;24.31;52.70
61292;BME280;47165;42.664;23.368;2023-07-31T07:23:04;94701.72;;;24.39;51.68
61292;BME280;47165;42.664;23.368;2023-07-31T07:25:30;94723.78;;;24.33;52.17
61292;BME280;47165;42.664;23.368;2023-07-31T07:27:56;94715.00;;;24.01;52.45
61292;BME280;47165;42.664;23.368;2023-07-31T07:30:21;94718.09;;;23.89;51.14
61292;BME280;47165;42.664;23.368;2023-07-31T07:32:47;94708.25;;;23.90;51.87
61292;BME280;47165;42.664;23.368;2023-07-31T07:35:12;94717.78;;;23.84;51.70
61292;BME280;47165;42.664;23.368;2023-07-31T07:37:38;94724.69;;;24.02;52.41
61292;BME280;47165;42.664;23.368;2023-07-31T07:40:03;94713.69;;;24.20;51.50
61292;BME280;47165;42.664;23.368;2023-07-31T07:42:29;94713.34;;;24.23;51.36
61292;BME280;47165;42.664;23.368;2023-07-31T07:44:55;94722.88;;;24.40;51.22
61292;BME280;47165;42.664;23.368;2023-07-31T07:47:20;94728.41;;;24.39;50.85
61292;BME280;47165;42.664;23.368;2023-07-31T07:49:45;94720.94;;;24.11;51.15
61292;BME280;47165;42.664;23.368;2023-07-31T07:52:11;94713.56;;;24.36;50.14
61292;BME280;47165;42.664;23.368;2023-07-31T07:54:36;94725.00;;;24.68;50.12
61292;BME280;47165;42.664;23.368;2023-07-31T07:57:02;94725.84;;;24.83;49.80
61292;BME280;47165;42.664;23.368;2023-07-31T07:59:28;94730.75;;;24.95;49.93
61292;BME280;47165;42.664;23.368;2023-07-31T08:01:53;94730.28;;;24.91;49.24
61292;BME280;47165;42.664;23.368;2023-07-31T08:04:19;94726.81;;;25.05;48.84
61292;BME280;47165;42.664;23.368;2023-07-31T08:06:44;94725.41;;;25.09;47.39
61292;BME280;47165;42.664;23.368;2023-07-31T08:09:10;94729.47;;;25.05;47.02
61292;BME280;47165;42.664;23.368;2023-07-31T08:11:36;94722.09;;;25.07;46.35
61292;BME280;47165;42.664;23.368;2023-07-31T08:14:01;94723.31;;;24.90;47.47
61292;BME280;47165;42.664;23.368;2023-07-31T08:16:27;94724.13;;;25.05;47.72
61292;BME280;47165;42.664;23.368;2023-07-31T08:18:52;94730.50;;;25.04;47.77
61292;BME280;47165;42.664;23.368;2023-07-31T08:21:18;94732.69;;;25.16;47.63
61292;BME280;47165;42.664;23.368;2023-07-31T08:23:43;94724.53;;;25.32;48.05
61292;BME280;47165;42.664;23.368;2023-07-31T08:26:15;94725.47;;;25.39;47.46
61292;BME280;47165;42.664;23.368;2023-07-31T08:28:41;94715.66;;;25.46;46.78
61292;BME280;47165;42.664;23.368;2023-07-31T08:31:06;94712.72;;;25.56;46.42
61292;BME280;47165;42.664;23.368;2023-07-31T08:33:31;94727.44;;;25.67;45.60
61292;BME280;47165;42.664;23.368;2023-07-31T08:35:58;94715.22;;;25.58;45.68
61292;BME280;47165;42.664;23.368;2023-07-31T08:38:26;94724.41;;;25.55;45.41
61292;BME280;47165;42.664;23.368;2023-07-31T08:40:51;94723.66;;;25.76;45.63
61292;BME280;47165;42.664;23.368;2023-07-31T08:43:18;94728.94;;;25.55;46.11
61292;BME280;47165;42.664;23.368;2023-07-31T08:45:47;94721.56;;;25.57;45.63
61292;BME280;47165;42.664;23.368;2023-07-31T08:48:15;94721.03;;;25.46;45.30
61292;BME280;47165;42.664;23.368;2023-07-31T08:50:42;94715.63;;;25.25;44.69
61292;BME280;47165;42.664;23.368;2023-07-31T08:53:07;94719.69;;;25.72;45.17
61292;BME280;47165;42.664;23.368;2023-07-31T08:55:33;94712.38;;;25.96;44.39
61292;BME280;47165;42.664;23.368;2023-07-31T08:57:59;94710.16;;;26.21;43.70
61292;BME280;47165;42.664;23.368;2023-07-31T09:00:26;94722.25;;;26.17;43.28
61292;BME280;47165;42.664;23.368;2023-07-31T09:03:03;94715.25;;;26.16;43.40
61292;BME280;47165;42.664;23.368;2023-07-31T09:05:36;94714.69;;;26.20;43.92
61292;BME280;47165;42.664;23.368;2023-07-31T09:08:05;94724.81;;;26.25;43.21
61292;BME280;47165;42.664;23.368;2023-07-31T09:10:32;94714.22;;;26.17;43.32
61292;BME280;47165;42.664;23.368;2023-07-31T09:12:58;94733.59;;;25.97;43.58
61292;BME280;47165;42.664;23.368;2023-07-31T09:15:24;94700.44;;;25.98;42.65
61292;BME280;47165;42.664;23.368;2023-07-31T09:17:59;94703.72;;;26.37;42.52
61292;BME280;47165;42.664;23.368;2023-07-31T09:20:37;94704.56;;;26.59;41.98
61292;BME280;47165;42.664;23.368;2023-07-31T09:23:07;94693.53;;;26.68;41.45
61292;BME280;47165;42.664;23.368;2023-07-31T09:25:34;94698.09;;;26.75;41.25
61292;BME280;47165;42.664;23.368;2023-07-31T09:28:01;94698.78;;;26.83;41.01
61292;BME280;47165;42.664;23.368;2023-07-31T09:30:27;94693.78;;;27.08;40.32
61292;BME280;47165;42.664;23.368;2023-07-31T09:33:02;94702.38;;;26.97;40.30
61292;BME280;47165;42.664;23.368;2023-07-31T09:35:32;94691.34;;;27.14;40.01
61292;BME280;47165;42.664;23.368;2023-07-31T09:38:09;94688.50;;;26.59;40.45
61292;BME280;47165;42.664;23.368;2023-07-31T09:40:37;94678.09;;;27.05;40.80
61292;BME280;47165;42.664;23.368;2023-07-31T09:43:05;94683.59;;;27.25;40.18
61292;BME280;47165;42.664;23.368;2023-07-31T09:45:34;94685.25;;;27.26;40.09
61292;BME280;47165;42.664;23.368;2023-07-31T09:48:02;94680.78;;;27.40;40.48
61292;BME280;47165;42.664;23.368;2023-07-31T09:50:28;94689.50;;;27.56;40.14
61292;BME280;47165;42.664;23.368;2023-07-31T09:52:54;94670.81;;;27.27;39.54
61292;BME280;47165;42.664;23.368;2023-07-31T09:55:20;94669.22;;;27.40;40.05
61292;BME280;47165;42.664;23.368;2023-07-31T09:57:47;94678.84;;;27.69;40.28
61292;BME280;47165;42.664;23.368;2023-07-31T10:00:14;94680.50;;;27.77;39.07
61292;BME280;47165;42.664;23.368;2023-07-31T10:02:41;94669.81;;;27.83;39.38
61292;BME280;47165;42.664;23.368;2023-07-31T10:05:07;94671.91;;;27.95;38.39
61292;BME280;47165;42.664;23.368;2023-07-31T10:07:37;94669.22;;;27.88;37.71
61292;BME280;47165;42.664;23.368;2023-07-31T10:10:06;94673.94;;;27.86;38.38
61292;BME280;47165;42.664;23.368;2023-07-31T10:12:33;94685.41;;;27.66;37.31
61292;BME280;47165;42.664;23.368;2023-07-31T10:15:00;94672.69;;;27.82;37.51
61292;BME280;47165;42.664;23.368;2023-07-31T10:17:26;94659.75;;;27.99;37.89
61292;BME280;47165;42.664;23.368;2023-07-31T10:19:56;94676.91;;;28.11;38.53
61292;BME280;47165;42.664;23.368;2023-07-31T10:22:23;94664.69;;;27.88;38.39
61292;BME280;47165;42.664;23.368;2023-07-31T10:24:50;94676.47;;;28.01;37.93
61292;BME280;47165;42.664;23.368;2023-07-31T10:27:17;94669.28;;;28.08;38.00
61292;BME280;47165;42.664;23.368;2023-07-31T10:29:45;94668.22;;;27.96;37.20
61292;BME280;47165;42.664;23.368;2023-07-31T10:32:13;94657.06;;;27.99;37.96
61292;BME280;47165;42.664;23.368;2023-07-31T10:34:40;94658.72;;;28.00;36.54
61292;BME280;47165;42.664;23.368;2023-07-31T10:37:26;94654.63;;;28.17;37.41
61292;BME280;47165;42.664;23.368;2023-07-31T10:39:59;94657.09;;;28.25;37.43
61292;BME280;47165;42.664;23.368;2023-07-31T10:42:36;94649.25;;;28.37;36.87
61292;BME280;47165;42.664;23.368;2023-07-31T10:45:08;94647.00;;;28.54;36.91
61292;BME280;47165;42.664;23.368;2023-07-31T10:47:44;94647.41;;;28.78;36.97
61292;BME280;47165;42.664;23.368;2023-07-31T10:52:46;94641.00;;;28.92;35.52
61292;BME280;47165;42.664;23.368;2023-07-31T10:55:35;94635.38;;;29.14;34.93
61292;BME280;47165;42.664;23.368;2023-07-31T10:58:10;94637.41;;;29.18;35.22
61292;BME280;47165;42.664;23.368;2023-07-31T11:00:41;94642.56;;;29.33;34.96
61292;BME280;47165;42.664;23.368;2023-07-31T11:03:12;94632.94;;;29.51;34.37
61292;BME280;47165;42.664;23.368;2023-07-31T11:08:21;94626.03;;;29.09;34.04
61292;BME280;47165;42.664;23.368;2023-07-31T11:11:07;94629.66;;;29.48;34.43
61292;BME280;47165;42.664;23.368;2023-07-31T11:13:45;94633.50;;;29.66;34.12
61292;BME280;47165;42.664;23.368;2023-07-31T11:16:12;94639.56;;;29.55;33.82
61292;BME280;47165;42.664;23.368;2023-07-31T11:18:40;94625.09;;;29.56;33.79
61292;BME280;47165;42.664;23.368;2023-07-31T11:21:07;94626.25;;;29.73;33.22
61292;BME280;47165;42.664;23.368;2023-07-31T11:23:33;94635.59;;;30.02;32.49
61292;BME280;47165;42.664;23.368;2023-07-31T11:26:01;94625.44;;;30.36;32.53
61292;BME280;47165;42.664;23.368;2023-07-31T11:28:31;94615.06;;;30.40;31.34
61292;BME280;47165;42.664;23.368;2023-07-31T11:30:58;94626.28;;;30.37;31.51
61292;BME280;47165;42.664;23.368;2023-07-31T11:33:23;94628.34;;;30.35;31.36
61292;BME280;47165;42.664;23.368;2023-07-31T11:35:49;94616.38;;;30.56;31.58
61292;BME280;47165;42.664;23.368;2023-07-31T11:38:26;94614.06;;;30.02;31.22
61292;BME280;47165;42.664;23.368;2023-07-31T11:40:53;94618.75;;;30.14;31.27
61292;BME280;47165;42.664;23.368;2023-07-31T11:43:20;94623.66;;;30.23;31.73
61292;BME280;47165;42.664;23.368;2023-07-31T11:45:51;94618.84;;;30.00;31.88
61292;BME280;47165;42.664;23.368;2023-07-31T11:50:51;94606.75;;;29.84;31.63
61292;BME280;47165;42.664;23.368;2023-07-31T11:53:19;94608.94;;;29.56;33.55
61292;BME280;47165;42.664;23.368;2023-07-31T11:55:46;94607.84;;;30.02;32.63
61292;BME280;47165;42.664;23.368;2023-07-31T11:58:13;94607.59;;;30.42;32.51
61292;BME280;47165;42.664;23.368;2023-07-31T12:00:40;94609.69;;;30.40;32.28
61292;BME280;47165;42.664;23.368;2023-07-31T12:03:06;94628.81;;;30.57;31.69
61292;BME280;47165;42.664;23.368;2023-07-31T12:05:32;94600.19;;;30.81;31.58
61292;BME280;47165;42.664;23.368;2023-07-31T12:07:59;94605.16;;;31.21;30.79
61292;BME280;47165;42.664;23.368;2023-07-31T12:10:28;94603.53;;;31.57;29.53
61292;BME280;47165;42.664;23.368;2023-07-31T12:13:09;94601.41;;;31.89;28.97
61292;BME280;47165;42.664;23.368;2023-07-31T12:15:42;94591.44;;;31.90;28.05
61292;BME280;47165;42.664;23.368;2023-07-31T12:18:13;94592.59;;;32.12;28.72
61292;BME280;47165;42.664;23.368;2023-07-31T12:23:13;94580.28;;;32.52;27.99
61292;BME280;47165;42.664;23.368;2023-07-31T12:25:39;94580.41;;;33.16;27.07
61292;BME280;47165;42.664;23.368;2023-07-31T12:28:05;94577.00;;;33.90;26.27
61292;BME280;47165;42.664;23.368;2023-07-31T12:30:34;94603.25;;;33.72;26.19
61292;BME280;47165;42.664;23.368;2023-07-31T12:33:04;94585.88;;;33.44;27.10
61292;BME280;47165;42.664;23.368;2023-07-31T12:35:38;94592.25;;;33.38;27.44
61292;BME280;47165;42.664;23.368;2023-07-31T12:38:03;94580.06;;;33.00;27.63
61292;BME280;47165;42.664;23.368;2023-07-31T12:40:29;94587.59;;;32.75;28.32
61292;BME280;47165;42.664;23.368;2023-07-31T12:45:22;94580.16;;;32.35;28.84
61292;BME280;47165;42.664;23.368;2023-07-31T12:47:48;94577.59;;;32.87;27.70
61292;BME280;47165;42.664;23.368;2023-07-31T12:50:14;94567.72;;;32.93;27.77
61292;BME280;47165;42.664;23.368;2023-07-31T12:52:39;94570.31;;;32.87;27.60
61292;BME280;47165;42.664;23.368;2023-07-31T12:55:05;94561.38;;;32.75;27.92
61292;BME280;47165;42.664;23.368;2023-07-31T12:57:31;94565.53;;;32.78;27.92
61292;BME280;47165;42.664;23.368;2023-07-31T12:59:56;94560.16;;;32.12;27.43
61292;BME280;47165;42.664;23.368;2023-07-31T13:02:22;94561.38;;;31.37;28.77
61292;BME280;47165;42.664;23.368;2023-07-31T13:04:48;94562.28;;;31.31;29.21
61292;BME280;47165;42.664;23.368;2023-07-31T13:07:14;94545.66;;;31.34;29.79
61292;BME280;47165;42.664;23.368;2023-07-31T13:09:50;94554.28;;;31.73;28.77